Data for 01/22/2018

Time Sea-Level Adjusted Pressure Absolute Pressure Temperature Relative Humidity Dew Point   
(mb) (inHg) (mb) (inHg) (C) (F) (%) (C) (F)
00:05 1019 30.09 848 25.04 -7.8 18 71 -12.1 10.2
00:10 1019 30.09 848 25.04 -8.2 17.2 74 -12 10.3
00:15 1019 30.09 848 25.04 -7.8 18 70 -12.3 9.8
00:20 1019 30.09 848 25.04 -7.6 18.3 70 -12.2 10.1
00:25 1019 30.09 848 25.04 -7.5 18.5 71 -11.9 10.5
00:30 1019 30.09 848 25.04 -7.6 18.3 71 -12 10.3
00:35 1019 30.09 848 25.04 -7.4 18.6 70 -12 10.4
00:40 1019 30.09 848 25.04 -7.7 18.2 72 -11.9 10.6
00:45 1019 30.09 848 25.04 -8.1 17.4 73 -12.1 10.2
00:50 1019 30.09 848 25.04 -8.4 16.8 74 -12.3 9.8
00:55 1019 30.09 848 25.04 -8.8 16.1 74 -12.7 9.2
01:00 1019 30.09 848 25.04 -8.9 16 74 -12.7 9.2
01:05 1019 30.09 848 25.04 -8.8 16.2 74 -12.6 9.3
01:10 1019 30.09 848 25.04 -8.9 15.9 74 -12.7 9.1
01:15 1019 30.09 848 25.04 -9 15.8 75 -12.7 9.2
01:20 1019 30.09 848 25.04 -9.1 15.5 74 -12.9 8.8
01:25 1019 30.09 848 25.04 -8.6 16.4 73 -12.7 9.1
01:30 1019 30.09 848 25.04 -8.6 16.6 72 -12.8 9
01:35 1019 30.09 848 25.04 -8.6 16.4 72 -12.7 9.1
01:40 1019 30.09 848 25.04 -8.6 16.6 72 -12.7 9.2
01:45 1019 30.09 848 25.04 -8.8 16.2 72 -12.9 8.8
01:50 1019 30.09 848 25.04 -9 15.8 73 -13.1 8.5
01:55 1019 30.09 848 25.04 -9.4 15.1 74 -13.3 8.1
02:00 1019 30.09 848 25.04 -9.5 14.9 74 -13.3 8
02:05 1019 30.09 848 25.04 -9.6 14.7 76 -13.1 8.5
02:10 1019 30.09 848 25.04 -9 15.7 74 -12.9 8.8
02:15 1019 30.09 848 25.04 -8.8 16.1 74 -12.7 9.1
02:20 1019 30.09 848 25.04 -8.7 16.4 72 -12.9 8.8
02:25 1019 30.09 848 25.04 -8.5 16.8 72 -12.7 9.1
02:30 1019 30.09 848 25.04 -8.3 17 71 -12.7 9.2
02:35 1019 30.09 848 25.04 -8 17.7 70 -12.5 9.4
02:40 1019 30.09 848 25.04 -7.8 18 69 -12.5 9.5
02:45 1019 30.09 848 25.04 -7.7 18.2 68 -12.5 9.5
02:50 1019 30.09 848 25.04 -7.6 18.2 68 -12.5 9.5
02:55 1019 30.09 848 25.04 -7.7 18.1 68 -12.6 9.3
03:00 1019 30.09 848 25.04 -7.7 18.1 68 -12.6 9.3
03:05 1019 30.09 848 25.04 -7.7 18.2 68 -12.7 9.2
03:10 1019 30.09 848 25.04 -7.8 17.9 69 -12.6 9.3
03:15 1019 30.09 848 25.04 -8.1 17.3 70 -12.8 9
03:20 1019 30.09 848 25.04 -8.2 17.2 70 -12.8 8.9
03:25 1019 30.09 848 25.04 -8.1 17.3 69 -12.8 8.9
03:30 1019 30.09 848 25.04 -8 17.6 69 -12.7 9.2
03:35 1019 30.09 848 25.04 -8.1 17.4 69 -12.8 8.9
03:40 1019 30.09 848 25.04 -8 17.7 70 -12.6 9.4
03:45 1019 30.09 848 25.04 -7.1 19.1 64 -12.9 8.8
03:50 1019 30.09 848 25.04 -6.4 20.5 62 -12.5 9.4
03:55 1019 30.09 848 25.04 -6.6 20.1 64 -12.4 9.7
04:00 1019 30.09 848 25.04 -7.1 19.3 65 -12.6 9.3
04:05 1019 30.09 848 25.04 -6.9 19.6 64 -12.6 9.4
04:10 1019 30.09 848 25.04 -7.2 19 66 -12.5 9.5
04:15 1019 30.09 848 25.04 -7.4 18.6 68 -12.4 9.7
04:20 1019 30.09 848 25.04 -7.9 17.8 70 -12.5 9.5
04:25 1019 30.09 848 25.04 -8 17.6 70 -12.6 9.4
04:30 1019 30.09 848 25.04 -8 17.7 70 -12.4 9.6
04:35 1019 30.09 848 25.04 -7.7 18.1 70 -12.3 9.9
04:40 1019 30.09 848 25.04 -7.7 18.2 70 -12.2 10
04:45 1019 30.09 848 25.04 -7.4 18.6 69 -12.2 10.1
04:50 1019 30.09 848 25.04 -7.4 18.7 70 -12 10.3
04:55 1019 30.09 848 25.04 -7.6 18.4 71 -12 10.4
05:00 1019 30.09 848 25.04 -7.8 18 70 -12.4 9.7
05:05 1019 30.09 848 25.04 -7.9 17.8 71 -12.2 10
05:10 1019 30.09 848 25.04 -7.6 18.3 68 -12.5 9.4
05:15 1019 30.09 848 25.04 -7.2 19 69 -12 10.3
05:20 1019 30.09 848 25.04 -7.4 18.7 69 -12.1 10.2
05:25 1019 30.09 848 25.04 -7.5 18.5 69 -12.3 9.8
05:30 1019 30.09 848 25.04 -7.7 18.2 70 -12.3 9.9
05:35 1019 30.09 848 25.04 -7.7 18.1 71 -12.2 10
05:40 1019 30.09 848 25.04 -7.8 18 71 -12.2 10.1
05:45 1019 30.09 848 25.04 -7.7 18.2 71 -12.1 10.3
05:50 1019 30.09 848 25.04 -7.6 18.4 70 -12.1 10.3
05:55 1019 30.09 848 25.04 -7.2 19.1 69 -12 10.5
06:00 1019 30.09 848 25.04 -6.7 20 66 -12 10.4
06:05 1019 30.09 848 25.04 -6.1 21.1 63 -12 10.4
06:10 1019 30.09 848 25.04 -5.9 21.4 64 -11.6 11
06:15 1019 30.09 848 25.04 -5.8 21.6 63 -11.7 11
06:20 1019 30.09 848 25.04 -5.9 21.4 65 -11.5 11.4
06:25 1019 30.09 848 25.04 -5.9 21.3 65 -11.5 11.3
06:30 1019 30.09 848 25.04 -5.9 21.3 66 -11.3 11.6
06:35 1019 30.09 848 25.04 -6.2 20.8 67 -11.3 11.6
06:40 1019 30.09 848 25.04 -6.5 20.3 69 -11.4 11.5
06:45 1019 30.09 848 25.04 -6.7 19.9 70 -11.4 11.5
06:50 1019 30.09 848 25.04 -6.6 20.1 69 -11.4 11.4
06:55 1019 30.09 848 25.04 -6.5 20.3 67 -11.6 11.2
07:00 1019 30.09 848 25.04 -6.5 20.4 68 -11.4 11.5
07:05 1019 30.09 848 25.04 -6.4 20.6 69 -11.2 11.8
07:10 1019 30.09 848 25.04 -6.2 20.8 69 -11 12.2
07:15 1019 30.09 848 25.04 -6.1 21 69 -10.8 12.5
07:20 1019 30.09 848 25.04 -6.1 21.1 69 -10.8 12.5
07:25 1019 30.09 848 25.04 -5.9 21.4 69 -10.7 12.7
07:30 1019 30.09 848 25.04 -5.8 21.5 69 -10.7 12.7
07:35 1019 30.09 848 25.04 -5.8 21.6 69 -10.6 12.9
07:40 1019 30.09 848 25.04 -5.7 21.8 68 -10.6 12.9
07:45 1019 30.09 848 25.04 -5.5 22.1 68 -10.5 13.1
07:50 1019 30.09 849 25.07 -5.4 22.2 68 -10.4 13.2
07:55 1019 30.09 849 25.07 -5.3 22.5 67 -10.5 13.1
08:00 1019 30.09 849 25.07 -5.3 22.4 70 -9.9 14.1
08:05 1019 30.09 849 25.07 -5.7 21.7 72 -10 13.9
08:10 1020 30.12 849 25.07 -5.7 21.7 72 -10 14
08:15 1020 30.12 849 25.07 -5.7 21.8 71 -10.1 13.8
08:20 1020 30.12 849 25.07 -5.5 22.1 70 -10.2 13.6
08:25 1020 30.12 849 25.07 -5.3 22.4 70 -10 13.9
08:30 1020 30.12 849 25.07 -5.2 22.6 69 -10.1 13.9
08:35 1020 30.12 849 25.07 -5 23 67 -10.2 13.6
08:40 1020 30.12 849 25.07 -4.6 23.7 65 -10.2 13.6
08:45 1020 30.12 849 25.07 -4.3 24.2 65 -9.9 14.1
08:50 1020 30.12 849 25.07 -4.4 24 69 -9.4 15.1
08:55 1020 30.12 849 25.07 -4.7 23.6 70 -9.3 15.3
09:00 1020 30.12 849 25.07 -5 23 71 -9.4 15
09:05 1020 30.12 849 25.07 -5.1 22.9 72 -9.3 15.3
09:10 1020 30.12 849 25.07 -4.9 23.2 71 -9.4 15.1
09:15 1020 30.12 849 25.07 -4.6 23.8 69 -9.4 15
09:20 1020 30.12 849 25.07 -4.5 23.9 70 -9.2 15.5
09:25 1020 30.12 849 25.07 -4.5 23.9 72 -8.8 16.2
09:30 1020 30.12 849 25.07 -4.4 24.1 73 -8.6 16.6
09:35 1020 30.12 849 25.07 -4.2 24.5 73 -8.3 17.1
09:40 1020 30.12 849 25.07 -4.1 24.6 74 -8.1 17.4
09:45 1020 30.12 849 25.07 -4 24.8 75 -7.9 17.8
09:50 1020 30.12 849 25.07 -3.8 25.1 74 -7.7 18.1
09:55 1020 30.12 849 25.07 -3.7 25.4 74 -7.7 18.1
10:00 1020 30.12 849 25.07 -3.5 25.7 73 -7.6 18.3
10:05 1020 30.12 850 25.1 -3.3 26.1 73 -7.5 18.5
10:10 1020 30.12 850 25.1 -3.1 26.5 73 -7.3 18.9
10:15 1020 30.12 850 25.1 -2.7 27.1 72 -7.1 19.2
10:20 1020 30.12 850 25.1 -2.7 27.1 73 -6.9 19.5
10:25 1020 30.12 850 25.1 -2.7 27.2 74 -6.7 19.9
10:30 1020 30.12 850 25.1 -2.3 27.9 71 -6.8 19.8
10:35 1020 30.12 850 25.1 -2 28.3 71 -6.6 20.1
10:40 1020 30.12 850 25.1 -2.2 28.1 73 -6.4 20.4
10:45 1020 30.12 850 25.1 -2.4 27.6 74 -6.5 20.3
10:50 1020 30.12 850 25.1 -2.5 27.6 74 -6.5 20.3
10:55 1020 30.12 850 25.1 -2.6 27.4 74 -6.5 20.3
11:00 1020 30.12 850 25.1 -2.3 27.8 73 -6.5 20.3
11:05 1020 30.12 849 25.07 -2.1 28.1 73 -6.4 20.4
11:10 1020 30.12 849 25.07 -1.9 28.7 71 -6.5 20.4
11:15 1020 30.12 849 25.07 -1.5 29.2 70 -6.3 20.7
11:20 1020 30.12 849 25.07 -1.2 29.9 68 -6.3 20.7
11:25 1020 30.12 849 25.07 -1.3 29.6 69 -6.3 20.7
11:30 1020 30.12 849 25.07 -1 30.2 67 -6.4 20.5
11:35 1020 30.12 849 25.07 -0.8 30.5 67 -6.2 20.9
11:40 1020 30.12 849 25.07 -0.9 30.3 67 -6.3 20.6
11:45 1020 30.12 849 25.07 -0.7 30.7 67 -6.2 20.9
11:50 1020 30.12 849 25.07 -0.4 31.3 66 -6.1 21.1
11:55 1020 30.12 849 25.07 -0.5 31.2 65 -6.2 20.8
12:00 1020 30.12 849 25.07 -0.1 31.8 64 -6.1 21
12:05 1020 30.12 849 25.07 0.1 32.2 64 -6 21.2
12:10 1020 30.12 849 25.07 0 32 64 -6 21.2
12:15 1020 30.12 849 25.07 0.2 32.4 61 -6.5 20.3
12:20 1020 30.12 849 25.07 0.3 32.5 62 -6.2 20.9
12:25 1020 30.12 849 25.07 -0.5 31.2 64 -6.4 20.6
12:30 1020 30.12 849 25.07 -0.7 30.7 68 -5.9 21.3
12:35 1020 30.12 849 25.07 -1.2 29.9 64 -7.1 19.2
12:40 1020 30.12 849 25.07 -1.5 29.4 67 -6.8 19.8
12:45 1020 30.12 849 25.07 -1.1 30.1 63 -7.1 19.1
12:50 1020 30.12 849 25.07 -1 30.2 61 -7.6 18.3
12:55 1020 30.12 849 25.07 -1.7 28.9 66 -7.3 18.9
13:00 1020 30.12 849 25.07 -2.2 28 67 -7.6 18.3
13:05 1020 30.12 849 25.07 -1.7 29 64 -7.7 18.2
13:10 1020 30.12 849 25.07 -1 30.3 60 -7.7 18.2
13:15 1020 30.12 849 25.07 -0.7 30.7 60 -7.5 18.5
13:20 1020 30.12 849 25.07 -0.5 31.2 60 -7.3 18.9
13:25 1020 30.12 849 25.07 -0.6 31 60 -7.4 18.8
13:30 1020 30.12 849 25.07 -1.1 30 63 -7.3 18.8
13:35 1020 30.12 849 25.07 -1.5 29.4 64 -7.4 18.7
13:40 1020 30.12 849 25.07 -1.4 29.5 63 -7.6 18.4
13:45 1020 30.12 849 25.07 -1.4 29.5 64 -7.3 18.8
13:50 1020 30.12 849 25.07 -1.4 29.5 64 -7.4 18.7
13:55 1020 30.12 849 25.07 -1.6 29.1 62 -8.1 17.5
14:00 1020 30.12 849 25.07 -1.9 28.6 63 -7.9 17.7
14:05 1020 30.12 849 25.07 -1.9 28.7 63 -8 17.7
14:10 1020 30.12 849 25.07 -2 28.4 67 -7.3 18.9
14:15 1020 30.12 849 25.07 -2.1 28.3 69 -6.9 19.5
14:20 1020 30.12 849 25.07 -2 28.4 72 -6.3 20.6
14:25 1020 30.12 849 25.07 -1.8 28.8 74 -5.8 21.5
14:30 1020 30.12 849 25.07 -1.7 29 77 -5.3 22.5
14:35 1020 30.12 849 25.07 -1.5 29.4 77 -4.9 23.1
14:40 1020 30.12 849 25.07 -1.4 29.5 77 -4.9 23.2
14:45 1020 30.12 849 25.07 -1.4 29.4 78 -4.8 23.4
14:50 1020 30.12 849 25.07 -1.3 29.6 78 -4.7 23.5
14:55 1020 30.12 849 25.07 -1.2 29.9 77 -4.7 23.5
15:00 1020 30.12 849 25.07 -1.2 29.9 77 -4.6 23.7
15:05 1020 30.12 849 25.07 -1 30.1 76 -4.7 23.6
15:10 1020 30.12 849 25.07 -1.3 29.6 78 -4.7 23.6
15:15 1020 30.12 849 25.07 -1.5 29.3 80 -4.6 23.8
15:20 1020 30.12 849 25.07 -1.6 29.1 80 -4.6 23.7
15:25 1020 30.12 849 25.07 -1.7 28.9 81 -4.6 23.6
15:30 1020 30.12 849 25.07 -1.9 28.7 81 -4.7 23.5
15:35 1020 30.12 849 25.07 -1.8 28.8 80 -4.8 23.4
15:40 1020 30.12 849 25.07 -1.8 28.7 81 -4.6 23.7
15:45 1020 30.12 849 25.07 -1.7 28.9 80 -4.7 23.5
15:50 1020 30.12 849 25.07 -1.7 28.9 80 -4.7 23.5
15:55 1020 30.12 849 25.07 -1.7 28.9 80 -4.6 23.7
16:00 1020 30.12 849 25.07 -1.7 29 80 -4.6 23.7
16:05 1020 30.12 849 25.07 -1.7 29 80 -4.6 23.6
16:10 1020 30.12 849 25.07 -1.9 28.7 83 -4.3 24.2
16:15 1020 30.12 849 25.07 -2 28.4 84 -4.4 24.1
16:20 1020 30.12 850 25.1 -2.2 28.1 83 -4.6 23.7
16:25 1020 30.12 850 25.1 -2.2 28.1 84 -4.5 23.9
16:30 1020 30.12 850 25.1 -2.1 28.2 83 -4.6 23.7
16:35 1020 30.12 850 25.1 -2.2 28 84 -4.7 23.6
16:40 1020 30.12 850 25.1 -2.3 27.9 83 -4.7 23.5
16:45 1020 30.12 850 25.1 -2.3 27.8 83 -4.9 23.2
16:50 1020 30.12 850 25.1 -2.4 27.7 82 -5 23
16:55 1020 30.12 850 25.1 -2.4 27.7 82 -5 23
17:00 1020 30.12 850 25.1 -2.4 27.6 83 -5 23
17:05 1020 30.12 850 25.1 -2.4 27.6 83 -5 23
17:10 1020 30.12 850 25.1 -2.4 27.6 82 -5.1 22.9
17:15 1020 30.12 850 25.1 -2.5 27.6 82 -5.1 22.8
17:20 1020 30.12 850 25.1 -2.5 27.6 82 -5.1 22.9
17:25 1020 30.12 850 25.1 -2.5 27.6 83 -5 22.9
17:30 1021 30.15 850 25.1 -2.5 27.4 83 -5 22.9
17:35 1021 30.15 850 25.1 -2.8 26.9 84 -5.1 22.8
17:40 1021 30.15 850 25.1 -3 26.7 85 -5.1 22.9
17:45 1021 30.15 850 25.1 -3 26.6 86 -5 23
17:50 1021 30.15 850 25.1 -3 26.6 86 -5 23
17:55 1021 30.15 850 25.1 -3 26.6 86 -5 23.1
18:00 1021 30.15 850 25.1 -3 26.7 86 -5 23.1
18:05 1021 30.15 850 25.1 -2.9 26.8 85 -5 22.9
18:10 1021 30.15 850 25.1 -2.8 27 84 -5.1 22.9
18:15 1021 30.15 850 25.1 -2.7 27.2 84 -5 23
18:20 1021 30.15 850 25.1 -2.7 27.1 84 -5 22.9
18:25 1021 30.15 850 25.1 -2.8 27 84 -5.1 22.8
18:30 1021 30.15 850 25.1 -2.9 26.8 84 -5.1 22.7
18:35 1021 30.15 850 25.1 -3.1 26.4 84 -5.4 22.3
18:40 1021 30.15 850 25.1 -3.2 26.3 84 -5.5 22.1
18:45 1021 30.15 850 25.1 -3.3 26.1 85 -5.5 22.1
18:50 1021 30.15 850 25.1 -3.2 26.2 84 -5.6 21.8
18:55 1021 30.15 850 25.1 -3.6 25.6 85 -5.8 21.6
19:00 1021 30.15 850 25.1 -3.6 25.5 86 -5.7 21.8
19:05 1021 30.15 850 25.1 -3.7 25.4 85 -5.8 21.5
19:10 1021 30.15 850 25.1 -3.8 25.1 86 -5.9 21.4
19:15 1021 30.15 850 25.1 -3.7 25.3 85 -5.8 21.5
19:20 1021 30.15 850 25.1 -3.5 25.7 84 -5.9 21.4
19:25 1021 30.15 850 25.1 -3.5 25.6 84 -5.8 21.5
19:30 1021 30.15 851 25.13 -3.9 25 87 -5.8 21.6
19:35 1021 30.15 850 25.1 -4.1 24.6 88 -5.8 21.5
19:40 1021 30.15 851 25.13 -4.2 24.5 88 -5.8 21.6
19:45 1021 30.15 851 25.13 -4.1 24.6 88 -5.8 21.6
19:50 1021 30.15 850 25.1 -4.2 24.4 89 -5.8 21.5
19:55 1021 30.15 850 25.1 -4.3 24.3 89 -5.8 21.5
20:00 1021 30.15 850 25.1 -4.3 24.3 89 -5.8 21.5
20:05 1021 30.15 850 25.1 -4.3 24.2 89 -5.8 21.6
20:10 1021 30.15 850 25.1 -4.3 24.2 89 -5.8 21.5
20:15 1021 30.15 850 25.1 -4.4 24.1 89 -5.9 21.4
20:20 1021 30.15 850 25.1 -4.4 24 90 -5.9 21.4
20:25 1021 30.15 850 25.1 -4.4 24 90 -5.8 21.5
20:30 1021 30.15 850 25.1 -4.4 24 90 -5.8 21.6
20:35 1021 30.15 850 25.1 -4.4 24.1 90 -5.8 21.6
20:40 1021 30.15 850 25.1 -4.3 24.2 90 -5.7 21.7
20:45 1021 30.15 850 25.1 -4.1 24.7 89 -5.6 21.9
20:50 1021 30.15 850 25.1 -4 24.9 88 -5.7 21.8
20:55 1021 30.15 850 25.1 -4.1 24.6 87 -5.9 21.4
21:00 1021 30.15 850 25.1 -4.3 24.2 88 -6 21.2
21:05 1021 30.15 850 25.1 -4.3 24.3 88 -5.9 21.4
21:10 1021 30.15 850 25.1 -4.3 24.3 88 -6 21.3
21:15 1021 30.15 851 25.13 -4.5 23.8 89 -6.1 21.1
21:20 1021 30.15 851 25.13 -4.5 23.8 89 -6 21.1
21:25 1021 30.15 851 25.13 -4.4 24.1 88 -6.2 20.9
21:30 1021 30.15 851 25.13 -4.1 24.6 86 -6.1 21
21:35 1022 30.18 851 25.13 -4.2 24.5 85 -6.4 20.5
21:40 1022 30.18 851 25.13 -5 22.9 82 -7.6 18.2
21:45 1022 30.18 851 25.13 -5 23 80 -7.9 17.9
21:50 1022 30.18 851 25.13 -5 22.9 81 -7.8 18
21:55 1022 30.18 851 25.13 -4.8 23.3 79 -7.8 17.9
22:00 1022 30.18 851 25.13 -4.4 24.2 77 -7.8 18
22:05 1022 30.18 851 25.13 -4.3 24.3 77 -7.8 18
22:10 1022 30.18 851 25.13 -4.8 23.4 79 -7.9 17.8
22:15 1022 30.18 851 25.13 -5.2 22.6 80 -8.1 17.4
22:20 1022 30.18 851 25.13 -5 23 82 -7.7 18.2
22:25 1022 30.18 851 25.13 -4.8 23.4 81 -7.6 18.3
22:30 1022 30.18 851 25.13 -5.3 22.5 82 -7.9 17.8
22:35 1022 30.18 851 25.13 -5.7 21.7 84 -8 17.5
22:40 1022 30.18 851 25.13 -5.4 22.2 81 -8.2 17.3
22:45 1022 30.18 851 25.13 -5.5 22.1 81 -8.3 17.1
22:50 1022 30.18 851 25.13 -5.7 21.8 82 -8.2 17.2
22:55 1022 30.18 851 25.13 -5.7 21.7 82 -8.3 17.1
23:00 1022 30.18 851 25.13 -6 21.2 83 -8.4 16.9
23:05 1022 30.18 851 25.13 -5.9 21.4 83 -8.3 17
23:10 1022 30.18 851 25.13 -5.5 22.1 83 -8 17.6
23:15 1022 30.18 851 25.13 -5.2 22.7 80 -8.1 17.5
23:20 1022 30.18 851 25.13 -5.2 22.6 80 -8.2 17.3
23:25 1022 30.18 851 25.13 -5.3 22.5 79 -8.3 17.1
23:30 1022 30.18 851 25.13 -5.3 22.4 80 -8.3 17.1
23:35 1022 30.18 851 25.13 -5.4 22.3 79 -8.4 16.9
23:40 1022 30.18 851 25.13 -5.6 22 79 -8.6 16.5
23:45 1022 30.18 851 25.13 -5.2 22.6 75 -9 15.9
23:50 1022 30.18 851 25.13 -5.2 22.6 75 -9 15.9
23:55 1022 30.18 851 25.13 -5.2 22.7 76 -8.7 16.3
24:00 1022 30.18 851 25.13 -5.4 22.3 76 -8.9 15.9